Time;durP1;ratioP1;P1;durP2;ratioP2;P2;SDS_P1;SDS_P2;PMS_P1;PMS_P2;Temp;Humidity;BMP_temperature;BMP_pressure;BME280_temperature;BME280_humidity;BME280_pressure;Samples;Min_cycle;Max_cycle;Signal;HPM_P1;HPM_P2
2021/08/20 00:00:12;;;;;;;7.20;6.17;;;17.20;99.90;;;;;;5050395;28;20190;-72
2021/08/20 00:02:38;;;;;;;6.57;5.97;;;17.10;99.90;;;;;;5045949;28;20178;-72
2021/08/20 00:05:05;;;;;;;6.80;6.20;;;17.20;99.90;;;;;;5050323;28;20511;-73
2021/08/20 00:07:31;;;;;;;6.70;6.10;;;17.20;99.90;;;;;;5050007;28;20253;-73
2021/08/20 00:10:00;;;;;;;6.97;6.37;;;17.10;99.90;;;;;;5049796;28;20599;-73
2021/08/20 00:12:27;;;;;;;7.13;6.07;;;17.10;99.90;;;;;;5049450;28;20210;-73
2021/08/20 00:14:55;;;;;;;8.45;6.13;;;17.00;99.90;;;;;;5050236;28;20419;-73
2021/08/20 00:17:22;;;;;;;7.60;5.77;;;17.00;99.90;;;;;;5052148;28;20198;-73
2021/08/20 00:19:48;;;;;;;6.37;5.87;;;17.00;99.90;;;;;;5050452;28;20424;-73
2021/08/20 00:22:14;;;;;;;6.60;6.00;;;17.00;99.90;;;;;;5052752;28;20459;-73
2021/08/20 00:24:39;;;;;;;6.00;5.47;;;17.00;99.90;;;;;;5053398;28;20413;-73
2021/08/20 00:27:05;;;;;;;6.63;5.93;;;16.90;99.90;;;;;;5050818;28;20189;-73
2021/08/20 00:29:31;;;;;;;6.30;5.70;;;16.90;99.90;;;;;;5049990;28;20525;-73
2021/08/20 00:31:56;;;;;;;6.83;6.23;;;16.90;99.90;;;;;;5050140;28;20555;-73
2021/08/20 00:34:22;;;;;;;6.00;5.50;;;16.90;99.90;;;;;;5049796;28;20216;-73
2021/08/20 00:36:48;;;;;;;6.80;6.20;;;16.90;99.90;;;;;;5049794;28;20567;-72
2021/08/20 00:39:15;;;;;;;6.70;6.00;;;16.80;99.90;;;;;;5031289;28;20178;-73
2021/08/20 00:41:41;;;;;;;6.80;6.20;;;16.80;99.90;;;;;;5050197;28;20444;-72
2021/08/20 00:44:07;;;;;;;6.50;5.90;;;16.80;99.90;;;;;;5050062;28;20420;-73
2021/08/20 00:46:32;;;;;;;6.20;5.70;;;16.80;99.90;;;;;;5051694;28;20426;-73
2021/08/20 00:48:58;;;;;;;7.50;6.80;;;16.80;99.90;;;;;;5051528;28;20228;-73
2021/08/20 00:51:26;;;;;;;7.03;6.00;;;16.80;99.90;;;;;;5050618;28;20214;-72
2021/08/20 00:53:54;;;;;;;6.67;6.13;;;16.80;99.90;;;;;;5053455;28;20198;-73
2021/08/20 00:56:20;;;;;;;7.10;6.40;;;16.80;99.90;;;;;;5052221;28;20460;-73
2021/08/20 00:58:47;;;;;;;6.30;5.70;;;16.80;99.90;;;;;;5049195;28;20467;-73
2021/08/20 01:01:13;;;;;;;5.87;5.37;;;16.80;99.90;;;;;;5031625;28;20441;-73
2021/08/20 01:03:38;;;;;;;6.10;5.60;;;16.80;99.90;;;;;;5049294;28;20423;-73
2021/08/20 01:06:08;;;;;;;6.90;5.77;;;16.80;99.90;;;;;;5049663;28;20927;-73
2021/08/20 01:08:35;;;;;;;7.00;6.30;;;16.80;99.90;;;;;;5031282;28;20166;-72
2021/08/20 01:11:03;;;;;;;6.50;5.90;;;16.80;99.90;;;;;;5049518;28;20444;-73
2021/08/20 01:13:35;;;;;;;7.93;6.37;;;16.80;99.90;;;;;;5049316;28;20571;-72
2021/08/20 01:16:02;;;;;;;8.83;6.47;;;16.70;99.90;;;;;;5048895;28;20468;-72
2021/08/20 01:18:29;;;;;;;7.40;6.50;;;16.80;99.90;;;;;;5049170;28;20474;-72
2021/08/20 01:20:57;;;;;;;7.43;6.73;;;16.80;99.90;;;;;;5048937;28;21100;-72
2021/08/20 01:23:23;;;;;;;7.00;6.40;;;16.70;99.90;;;;;;5052507;28;20488;-72
2021/08/20 01:25:49;;;;;;;8.70;6.70;;;16.70;99.90;;;;;;5052790;28;20436;-73
2021/08/20 01:28:15;;;;;;;7.00;5.67;;;16.70;99.90;;;;;;5052791;28;20870;-72
2021/08/20 01:30:40;;;;;;;7.00;6.30;;;16.80;99.90;;;;;;5052503;28;20754;-72
2021/08/20 01:33:06;;;;;;;7.10;6.40;;;16.70;99.90;;;;;;5034730;28;20436;-72
2021/08/20 01:35:33;;;;;;;7.10;6.40;;;16.80;99.90;;;;;;5052679;28;20210;-72
2021/08/20 01:37:59;;;;;;;6.87;6.27;;;16.80;99.90;;;;;;5035152;28;20182;-71
2021/08/20 01:40:25;;;;;;;8.93;6.50;;;16.80;99.90;;;;;;5052960;28;20432;-72
2021/08/20 01:42:50;;;;;;;7.30;6.40;;;16.80;99.90;;;;;;5052946;28;20431;-71
2021/08/20 01:45:16;;;;;;;7.60;6.80;;;16.70;99.90;;;;;;5053208;28;20293;-73
2021/08/20 01:47:42;;;;;;;7.33;6.30;;;16.70;99.90;;;;;;5054789;28;20591;-72
2021/08/20 01:50:09;;;;;;;7.20;6.50;;;16.70;99.90;;;;;;5054613;28;20540;-73
2021/08/20 01:52:35;;;;;;;7.23;6.53;;;16.70;99.90;;;;;;5072660;28;20205;-72
2021/08/20 01:55:02;;;;;;;8.37;6.73;;;16.70;99.90;;;;;;5070986;28;20496;-71
2021/08/20 01:57:28;;;;;;;7.50;6.53;;;16.70;99.90;;;;;;5062239;28;20213;-72
2021/08/20 01:59:54;;;;;;;7.43;6.73;;;16.70;99.90;;;;;;5034132;28;20510;-72
2021/08/20 02:02:20;;;;;;;7.07;6.47;;;16.80;99.90;;;;;;5031147;28;20171;-71
2021/08/20 02:04:45;;;;;;;7.83;7.13;;;16.80;99.90;;;;;;5043203;28;20419;-72
2021/08/20 02:07:11;;;;;;;7.73;6.93;;;16.80;99.90;;;;;;5052083;28;20431;-72
2021/08/20 02:09:36;;;;;;;8.00;7.20;;;16.70;99.90;;;;;;5051138;28;20914;-72
2021/08/20 02:12:02;;;;;;;7.50;6.83;;;16.70;99.90;;;;;;5052066;28;20174;-71
2021/08/20 02:14:28;;;;;;;7.50;6.50;;;16.80;99.90;;;;;;5051944;28;20197;-72
2021/08/20 02:16:53;;;;;;;8.47;7.60;;;16.80;99.90;;;;;;5051598;28;20702;-72
2021/08/20 02:19:19;;;;;;;7.60;6.80;;;16.80;99.90;;;;;;5051454;28;20188;-72
2021/08/20 02:21:44;;;;;;;7.73;6.70;;;16.70;99.90;;;;;;5051849;28;20257;-72
2021/08/20 02:24:10;;;;;;;7.93;7.20;;;16.70;99.90;;;;;;5051802;28;20180;-72
2021/08/20 02:26:35;;;;;;;7.73;6.97;;;16.70;99.90;;;;;;5051513;28;20198;-73
2021/08/20 02:29:01;;;;;;;8.00;7.33;;;16.60;99.90;;;;;;5051340;28;20646;-72
2021/08/20 02:31:26;;;;;;;9.97;7.20;;;16.70;99.90;;;;;;5051872;28;20198;-72
2021/08/20 02:33:52;;;;;;;8.87;7.60;;;16.70;99.90;;;;;;5051904;28;20189;-72
2021/08/20 02:36:17;;;;;;;8.47;7.57;;;16.70;99.90;;;;;;5051646;28;20240;-72
2021/08/20 02:38:43;;;;;;;7.03;6.40;;;16.70;99.90;;;;;;5034038;28;20194;-72
2021/08/20 02:41:09;;;;;;;9.80;7.50;;;16.70;99.90;;;;;;5053090;28;20601;-72
2021/08/20 02:43:35;;;;;;;9.80;7.72;;;16.70;99.90;;;;;;5052719;28;20428;-72
2021/08/20 02:46:00;;;;;;;9.20;8.17;;;16.80;99.90;;;;;;5053163;28;20259;-72
2021/08/20 02:48:26;;;;;;;9.00;7.70;;;16.80;99.90;;;;;;5053624;28;20416;-72
2021/08/20 02:50:52;;;;;;;8.40;7.60;;;16.70;99.90;;;;;;5054552;28;20201;-72
2021/08/20 02:53:18;;;;;;;7.83;7.03;;;16.80;99.90;;;;;;5052319;28;20163;-73
2021/08/20 02:55:43;;;;;;;9.37;7.40;;;16.70;99.90;;;;;;5052774;28;20228;-73
2021/08/20 02:58:09;;;;;;;7.50;6.50;;;16.70;99.90;;;;;;5054620;28;20220;-72
2021/08/20 03:00:34;;;;;;;7.97;7.20;;;16.80;99.90;;;;;;5054373;28;20198;-73
2021/08/20 03:03:00;;;;;;;10.53;8.07;;;16.80;99.90;;;;;;5054424;28;20186;-73
2021/08/20 03:05:26;;;;;;;11.00;8.40;;;16.70;99.90;;;;;;5054727;28;20558;-73
2021/08/20 03:07:51;;;;;;;10.17;9.03;;;16.60;99.90;;;;;;5054623;28;20174;-73
2021/08/20 03:10:17;;;;;;;11.53;8.87;;;16.60;99.90;;;;;;5053966;28;20711;-73
2021/08/20 03:12:42;;;;;;;9.37;7.90;;;16.60;99.90;;;;;;5054591;28;20555;-73
2021/08/20 03:15:08;;;;;;;9.00;8.10;;;16.70;99.90;;;;;;5054254;28;20185;-73
2021/08/20 03:17:34;;;;;;;10.03;8.80;;;16.70;99.90;;;;;;5054571;28;20190;-73
2021/08/20 03:20:00;;;;;;;10.20;8.50;;;16.70;99.90;;;;;;5053950;28;20428;-73
2021/08/20 03:22:25;;;;;;;11.90;9.80;;;16.70;99.90;;;;;;5053375;28;20457;-73
2021/08/20 03:24:51;;;;;;;10.00;9.00;;;16.80;99.90;;;;;;5054062;28;20170;-73
2021/08/20 03:27:17;;;;;;;9.57;8.67;;;16.80;99.90;;;;;;5053928;28;20564;-73
2021/08/20 03:29:42;;;;;;;10.40;9.30;;;16.70;99.90;;;;;;5054138;28;20167;-71
2021/08/20 03:32:08;;;;;;;10.70;9.60;;;16.70;99.90;;;;;;5053969;28;20777;-73
2021/08/20 03:34:34;;;;;;;11.23;10.10;;;16.70;99.90;;;;;;5054146;28;20216;-72
2021/08/20 03:37:00;;;;;;;14.00;10.40;;;16.70;99.90;;;;;;5054028;28;20457;-73
2021/08/20 03:39:26;;;;;;;13.07;11.40;;;16.70;99.90;;;;;;5054327;28;20476;-73
2021/08/20 03:41:51;;;;;;;12.50;11.20;;;16.60;99.90;;;;;;5054137;28;20198;-72
2021/08/20 03:44:17;;;;;;;13.60;12.00;;;16.50;99.90;;;;;;5053462;28;20550;-73
2021/08/20 03:46:42;;;;;;;12.67;10.60;;;16.50;99.90;;;;;;5053895;28;20178;-71
2021/08/20 03:49:08;;;;;;;12.73;11.23;;;16.50;99.90;;;;;;5053393;28;20542;-73
2021/08/20 03:51:33;;;;;;;13.80;11.20;;;16.50;99.90;;;;;;5054147;28;20210;-73
2021/08/20 03:53:59;;;;;;;16.23;12.47;;;16.50;99.90;;;;;;5054573;28;20174;-72
2021/08/20 03:56:25;;;;;;;13.10;11.40;;;16.50;99.90;;;;;;5054157;28;20197;-71
2021/08/20 03:58:50;;;;;;;12.93;11.60;;;16.50;99.90;;;;;;5053274;28;20555;-71
2021/08/20 04:01:16;;;;;;;15.03;13.40;;;16.50;99.90;;;;;;5052550;28;20420;-72
2021/08/20 04:03:42;;;;;;;15.77;13.47;;;16.40;99.90;;;;;;5053723;28;20900;-72
2021/08/20 04:06:11;;;;;;;14.45;12.90;;;16.40;99.90;;;;;;5035443;28;20769;-72
2021/08/20 04:08:37;;;;;;;17.20;14.80;;;16.40;99.90;;;;;;5054030;28;20178;-72
2021/08/20 04:11:03;;;;;;;17.87;13.90;;;16.30;99.90;;;;;;5053971;28;20416;-72
2021/08/20 04:13:28;;;;;;;17.20;13.57;;;16.40;99.90;;;;;;5053604;28;20938;-72
2021/08/20 04:15:54;;;;;;;14.07;12.57;;;16.40;99.90;;;;;;5053819;28;20194;-72
2021/08/20 04:18:20;;;;;;;16.20;13.50;;;16.40;99.90;;;;;;5053758;28;20186;-72
2021/08/20 04:20:45;;;;;;;21.67;14.53;;;16.40;99.90;;;;;;5053478;28;20190;-72
2021/08/20 04:23:11;;;;;;;15.07;13.53;;;16.40;99.90;;;;;;5053785;28;20178;-73
2021/08/20 04:25:37;;;;;;;17.13;15.33;;;16.40;99.90;;;;;;5053832;28;20643;-72
2021/08/20 04:28:03;;;;;;;17.97;14.40;;;16.40;99.90;;;;;;5053456;28;20507;-72
2021/08/20 04:30:29;;;;;;;17.83;15.10;;;16.40;99.90;;;;;;5045979;28;20596;-72
2021/08/20 04:32:59;;;;;;;17.57;14.10;;;16.40;99.90;;;;;;5033426;28;20459;-72
2021/08/20 04:35:26;;;;;;;17.60;14.37;;;16.30;99.90;;;;;;5033451;28;20413;-71
2021/08/20 04:37:51;;;;;;;18.17;13.33;;;16.20;99.90;;;;;;5032267;28;20488;-72
2021/08/20 04:40:17;;;;;;;18.60;16.60;;;16.20;99.90;;;;;;5040679;28;20419;-72
2021/08/20 04:42:42;;;;;;;18.77;14.80;;;16.20;99.90;;;;;;5052654;28;20170;-72
2021/08/20 04:45:09;;;;;;;15.48;13.88;;;16.20;99.90;;;;;;5052894;28;20400;-72
2021/08/20 04:47:34;;;;;;;16.67;13.70;;;16.20;99.90;;;;;;5053061;28;20183;-72
2021/08/20 04:50:00;;;;;;;16.20;12.43;;;16.10;99.90;;;;;;5052770;28;20738;-72
2021/08/20 04:52:26;;;;;;;15.33;11.73;;;16.10;99.90;;;;;;5052950;28;20728;-72
2021/08/20 04:54:51;;;;;;;13.77;11.33;;;16.20;99.90;;;;;;5053250;28;20178;-73
2021/08/20 04:57:17;;;;;;;13.70;12.03;;;16.30;99.90;;;;;;5056329;28;20190;-72
2021/08/20 04:59:42;;;;;;;13.83;11.70;;;16.20;99.90;;;;;;5056737;28;20174;-73
2021/08/20 05:02:08;;;;;;;13.50;11.47;;;16.20;99.90;;;;;;5057429;28;20225;-73
2021/08/20 05:04:35;;;;;;;13.37;12.17;;;16.20;99.90;;;;;;5056479;28;20640;-73
2021/08/20 05:07:03;;;;;;;13.43;12.03;;;16.30;99.90;;;;;;5050461;28;20512;-72
2021/08/20 05:09:28;;;;;;;13.47;11.80;;;16.20;99.90;;;;;;5047273;28;20508;-73
2021/08/20 05:11:54;;;;;;;13.33;12.03;;;16.20;99.90;;;;;;5039561;28;20483;-73
2021/08/20 05:14:20;;;;;;;16.47;11.60;;;16.20;99.90;;;;;;5053232;28;20183;-72
2021/08/20 05:16:48;;;;;;;13.93;12.10;;;16.20;99.90;;;;;;5045451;28;20203;-73
2021/08/20 05:19:16;;;;;;;15.20;13.60;;;16.20;99.90;;;;;;5058015;28;20410;-71
2021/08/20 05:21:42;;;;;;;12.23;11.00;;;16.40;99.90;;;;;;5047047;28;20459;-72
2021/08/20 05:24:07;;;;;;;12.87;11.43;;;16.40;99.90;;;;;;5053901;28;20436;-72
2021/08/20 05:26:33;;;;;;;12.80;11.37;;;16.40;99.90;;;;;;5051416;28;20189;-72
2021/08/20 05:28:59;;;;;;;15.67;12.30;;;16.50;99.90;;;;;;5045746;28;20708;-72
2021/08/20 05:31:24;;;;;;;15.97;12.13;;;16.40;99.90;;;;;;5043298;28;20222;-73
2021/08/20 05:33:50;;;;;;;13.30;11.90;;;16.40;99.90;;;;;;5052567;28;20182;-72
2021/08/20 05:36:18;;;;;;;21.97;12.23;;;16.40;99.90;;;;;;5050745;28;21073;-73
2021/08/20 05:38:44;;;;;;;19.43;12.40;;;16.40;99.90;;;;;;5053090;28;20190;-71
2021/08/20 05:41:10;;;;;;;15.33;10.53;;;16.50;99.90;;;;;;5052842;28;20428;-73
2021/08/20 05:43:39;;;;;;;15.93;13.07;;;16.60;99.90;;;;;;5049408;28;20440;-74
2021/08/20 05:46:06;;;;;;;14.20;12.33;;;16.60;99.90;;;;;;5036055;28;20673;-72
2021/08/20 05:48:32;;;;;;;15.40;11.23;;;16.60;99.90;;;;;;5052615;28;20909;-73
2021/08/20 05:50:57;;;;;;;14.40;11.30;;;16.60;99.90;;;;;;5052717;28;20484;-72
2021/08/20 05:53:23;;;;;;;14.43;11.03;;;16.70;99.90;;;;;;5052870;28;20182;-73
2021/08/20 05:55:49;;;;;;;14.93;11.87;;;16.80;99.90;;;;;;5035581;28;20554;-74
2021/08/20 05:58:15;;;;;;;16.77;11.63;;;16.80;99.90;;;;;;5052905;28;20421;-73
2021/08/20 06:00:48;;;;;;;16.77;12.67;;;16.80;99.90;;;;;;5034007;28;20456;-72
2021/08/20 06:03:31;;;;;;;17.03;12.70;;;16.80;99.90;;;;;;5052960;28;20178;-73
2021/08/20 06:05:57;;;;;;;15.97;12.33;;;16.90;99.90;;;;;;5053408;28;20420;-73
2021/08/20 06:08:22;;;;;;;16.77;12.67;;;17.00;99.90;;;;;;5048708;28;20494;-70
2021/08/20 06:10:48;;;;;;;17.47;12.70;;;17.00;99.90;;;;;;5047530;28;20218;-72
2021/08/20 06:13:17;;;;;;;20.97;13.80;;;17.00;99.90;;;;;;5051337;28;20534;-72
2021/08/20 06:15:42;;;;;;;20.40;13.60;;;17.10;99.90;;;;;;5051652;28;20190;-73
2021/08/20 06:18:08;;;;;;;20.37;13.90;;;17.10;99.90;;;;;;5046874;28;20421;-72
2021/08/20 06:20:37;;;;;;;19.17;13.93;;;17.10;99.90;;;;;;5050327;28;20281;-73
2021/08/20 06:23:09;;;;;;;19.00;14.20;;;17.10;99.90;;;;;;5050811;28;20202;-72
2021/08/20 06:25:34;;;;;;;20.37;16.20;;;17.10;99.90;;;;;;5050587;28;20485;-72
2021/08/20 06:28:00;;;;;;;19.77;14.87;;;17.10;99.90;;;;;;5050587;28;20452;-72
2021/08/20 06:30:26;;;;;;;21.50;14.90;;;17.20;99.90;;;;;;5042746;28;20222;-72
2021/08/20 06:32:51;;;;;;;19.57;14.50;;;17.10;99.90;;;;;;5032763;28;20214;-72
2021/08/20 06:35:17;;;;;;;22.03;15.07;;;17.20;99.90;;;;;;5032407;28;20190;-73
2021/08/20 06:37:43;;;;;;;23.47;14.90;;;17.20;99.90;;;;;;5049508;28;20574;-71
2021/08/20 06:40:10;;;;;;;19.83;13.77;;;17.20;99.90;;;;;;5050073;28;20209;-73
2021/08/20 06:42:36;;;;;;;23.90;14.00;;;17.30;99.90;;;;;;5031895;28;20187;-71
2021/08/20 06:45:01;;;;;;;16.10;13.00;;;17.20;99.90;;;;;;5049561;28;20523;-71
2021/08/20 06:47:27;;;;;;;12.57;11.27;;;17.40;99.90;;;;;;5049976;28;20232;-72
2021/08/20 06:49:52;;;;;;;17.70;14.30;;;17.50;99.90;;;;;;5050599;28;20178;-74
2021/08/20 06:52:18;;;;;;;23.00;15.67;;;17.50;99.90;;;;;;5044015;28;20270;-70
2021/08/20 06:54:44;;;;;;;21.23;15.20;;;17.50;99.90;;;;;;5048216;28;20192;-71
2021/08/20 06:57:10;;;;;;;15.93;11.80;;;17.60;99.90;;;;;;5050587;28;20213;-71
2021/08/20 06:59:36;;;;;;;16.43;13.70;;;17.60;99.90;;;;;;5032124;28;20744;-73
2021/08/20 07:02:02;;;;;;;16.43;13.77;;;17.80;99.90;;;;;;5048958;28;20801;-72
2021/08/20 07:04:28;;;;;;;17.00;13.00;;;18.00;99.90;;;;;;5019595;28;20444;-72
2021/08/20 07:06:54;;;;;;;19.50;13.67;;;18.10;99.90;;;;;;5041550;28;20256;-73
2021/08/20 07:09:24;;;;;;;18.20;14.83;;;18.10;99.90;;;;;;5039774;28;20704;-74
2021/08/20 07:11:50;;;;;;;17.53;13.67;;;18.10;99.90;;;;;;5029866;28;20529;-73
2021/08/20 07:14:15;;;;;;;16.03;13.17;;;18.10;99.90;;;;;;5051168;28;20893;-72
2021/08/20 07:16:40;;;;;;;18.03;13.87;;;18.10;99.90;;;;;;5051946;28;20442;-73
2021/08/20 07:19:06;;;;;;;20.63;13.90;;;18.10;99.90;;;;;;5050863;28;20181;-73
2021/08/20 07:21:32;;;;;;;20.70;15.00;;;18.00;99.90;;;;;;5033134;28;20187;-72
2021/08/20 07:23:57;;;;;;;20.38;16.25;;;18.10;99.90;;;;;;5033649;28;20955;-72
2021/08/20 07:26:23;;;;;;;20.70;15.97;;;18.20;99.90;;;;;;5049107;28;20230;-73
2021/08/20 07:28:48;;;;;;;20.20;16.30;;;18.10;99.90;;;;;;5036498;28;20170;-72
2021/08/20 07:31:14;;;;;;;21.80;15.93;;;18.20;99.90;;;;;;5035893;28;20204;-73
2021/08/20 07:33:39;;;;;;;20.20;16.27;;;18.30;99.90;;;;;;5056175;28;20231;-73
2021/08/20 07:36:05;;;;;;;24.67;17.60;;;18.30;99.90;;;;;;5054503;28;20594;-72
2021/08/20 07:38:30;;;;;;;22.37;16.47;;;18.30;99.90;;;;;;5054049;28;20181;-72
2021/08/20 07:40:56;;;;;;;23.10;16.50;;;18.30;99.90;;;;;;5054230;28;20213;-73
2021/08/20 07:43:22;;;;;;;19.60;16.43;;;18.30;99.90;;;;;;5055205;28;20170;-73
2021/08/20 07:45:48;;;;;;;21.47;15.43;;;18.40;99.90;;;;;;5056171;28;20257;-72
2021/08/20 07:48:13;;;;;;;20.33;15.80;;;18.40;99.90;;;;;;5054685;28;20454;-73
2021/08/20 07:50:40;;;;;;;19.30;15.13;;;18.50;99.90;;;;;;5053689;28;20194;-74
2021/08/20 07:53:07;;;;;;;19.23;15.37;;;18.60;99.90;;;;;;5054147;28;20240;-73
2021/08/20 07:55:33;;;;;;;19.80;14.83;;;18.70;99.90;;;;;;5053511;28;20458;-74
2021/08/20 07:57:59;;;;;;;19.73;15.30;;;18.70;99.90;;;;;;5035657;28;20448;-73
2021/08/20 08:00:27;;;;;;;23.30;15.67;;;18.70;99.90;;;;;;5035363;28;20440;-73
2021/08/20 08:02:54;;;;;;;19.07;13.63;;;18.70;99.90;;;;;;5053765;28;20404;-72
2021/08/20 08:05:20;;;;;;;18.60;14.60;;;18.80;99.90;;;;;;5053450;28;20430;-73
2021/08/20 08:07:46;;;;;;;20.03;15.00;;;18.80;99.90;;;;;;5053569;28;20495;-72
2021/08/20 08:10:11;;;;;;;17.93;14.43;;;18.80;99.90;;;;;;5053303;28;20985;-73
2021/08/20 08:12:37;;;;;;;19.53;16.17;;;18.80;99.90;;;;;;5053687;28;20664;-73
2021/08/20 08:15:05;;;;;;;17.63;14.67;;;18.80;99.90;;;;;;5053887;28;20534;-74
2021/08/20 08:17:31;;;;;;;17.30;15.27;;;18.80;99.90;;;;;;5053428;28;20663;-72
2021/08/20 08:19:56;;;;;;;16.10;14.37;;;18.90;99.90;;;;;;5052794;28;20460;-72
2021/08/20 08:22:22;;;;;;;17.30;14.50;;;19.10;99.90;;;;;;5053873;28;20174;-73
2021/08/20 08:24:47;;;;;;;21.13;15.27;;;19.30;99.90;;;;;;5053919;28;20538;-71
2021/08/20 08:27:13;;;;;;;21.50;17.20;;;19.40;99.90;;;;;;5054514;28;20170;-73
2021/08/20 08:29:38;;;;;;;17.50;15.13;;;19.30;99.90;;;;;;5053557;28;20194;-73
2021/08/20 08:32:04;;;;;;;20.40;16.33;;;19.40;99.90;;;;;;5056475;28;20223;-73
2021/08/20 08:34:30;;;;;;;20.40;17.70;;;19.50;99.90;;;;;;5057560;28;20469;-73
2021/08/20 08:36:55;;;;;;;18.73;16.70;;;19.50;99.90;;;;;;5041169;28;20255;-74
2021/08/20 08:39:21;;;;;;;21.77;17.07;;;19.60;99.90;;;;;;5059340;28;20170;-72
2021/08/20 08:41:46;;;;;;;20.23;18.10;;;19.70;99.90;;;;;;5059203;28;20558;-72
2021/08/20 08:44:12;;;;;;;21.70;17.57;;;19.50;99.90;;;;;;5059330;28;20186;-73
2021/08/20 08:46:37;;;;;;;19.27;16.80;;;19.50;99.90;;;;;;5073913;28;20591;-73
2021/08/20 08:49:05;;;;;;;20.80;16.00;;;19.50;99.90;;;;;;5076853;28;20170;-73
2021/08/20 08:51:31;;;;;;;18.63;15.93;;;19.50;99.90;;;;;;5050156;28;20218;-74
2021/08/20 08:53:56;;;;;;;18.13;16.00;;;19.40;99.90;;;;;;5058134;28;20866;-74
2021/08/20 08:56:24;;;;;;;19.53;16.47;;;19.30;99.90;;;;;;5057274;28;20213;-73
2021/08/20 08:58:50;;;;;;;19.33;15.80;;;19.20;99.90;;;;;;5057182;28;20173;-72
2021/08/20 09:01:31;;;;;;;17.27;14.00;;;19.10;99.90;;;;;;5056955;28;20429;-75
2021/08/20 09:04:14;;;;;;;16.43;13.30;;;19.10;99.90;;;;;;5057123;28;20190;-71
2021/08/20 09:06:43;;;;;;;14.93;12.10;;;19.20;99.90;;;;;;5057633;28;20784;-73
2021/08/20 09:09:15;;;;;;;12.93;11.63;;;19.20;99.90;;;;;;5056945;28;20408;-73
2021/08/20 09:11:41;;;;;;;13.10;11.20;;;19.40;99.90;;;;;;5056890;28;20435;-73
2021/08/20 09:14:08;;;;;;;14.40;11.73;;;19.60;99.90;;;;;;5039165;28;20416;-72
2021/08/20 09:16:41;;;;;;;12.77;9.60;;;19.70;99.90;;;;;;5056472;28;20510;-73
2021/08/20 09:19:13;;;;;;;12.00;10.57;;;19.70;99.90;;;;;;5056177;28;20416;-72
2021/08/20 09:21:48;;;;;;;14.30;11.80;;;19.80;99.90;;;;;;5056941;28;20466;-74
2021/08/20 09:24:29;;;;;;;11.87;10.67;;;19.90;99.90;;;;;;5057200;28;20412;-72
2021/08/20 09:27:17;;;;;;;11.40;10.20;;;19.90;99.90;;;;;;5056706;28;20447;-75
2021/08/20 09:30:10;;;;;;;11.43;10.30;;;20.10;99.90;;;;;;5056972;28;20423;-73
2021/08/20 09:32:52;;;;;;;11.87;10.37;;;20.00;99.90;;;;;;5057322;28;20719;-73
2021/08/20 09:35:17;;;;;;;11.97;10.30;;;20.00;99.90;;;;;;5056905;28;20443;-73
2021/08/20 09:37:43;;;;;;;12.47;11.17;;;20.20;99.90;;;;;;5057144;28;20480;-74
2021/08/20 09:40:12;;;;;;;12.07;10.73;;;20.20;99.90;;;;;;5056465;28;20205;-72
2021/08/20 09:42:39;;;;;;;11.37;10.27;;;20.20;99.90;;;;;;5055380;28;20766;-73
2021/08/20 09:45:12;;;;;;;11.37;10.30;;;20.20;99.90;;;;;;5056372;28;20401;-72
2021/08/20 09:47:45;;;;;;;13.50;12.10;;;20.20;99.90;;;;;;5056702;28;20432;-72
2021/08/20 09:50:11;;;;;;;12.32;11.02;;;20.40;99.90;;;;;;5055641;28;20419;-72
2021/08/20 09:52:37;;;;;;;11.47;9.87;;;20.50;99.90;;;;;;5056601;28;20290;-72
2021/08/20 09:55:03;;;;;;;10.57;9.47;;;20.50;99.90;;;;;;5038235;28;20451;-71
2021/08/20 09:57:28;;;;;;;8.97;8.07;;;20.60;99.90;;;;;;5056055;28;20193;-73
2021/08/20 09:59:56;;;;;;;9.30;8.30;;;20.70;99.90;;;;;;5056176;28;20198;-73
2021/08/20 10:02:26;;;;;;;9.00;8.20;;;20.70;99.90;;;;;;5056828;28;20197;-73
2021/08/20 10:04:55;;;;;;;8.20;7.40;;;20.90;99.90;;;;;;5056573;28;20425;-74
2021/08/20 10:07:22;;;;;;;7.87;7.10;;;21.00;99.90;;;;;;5056853;28;20417;-72
2021/08/20 10:09:48;;;;;;;9.77;6.93;;;21.10;99.90;;;;;;5058348;28;20408;-74
2021/08/20 10:12:23;;;;;;;8.50;7.70;;;21.10;99.90;;;;;;5058994;28;20439;-74
2021/08/20 10:14:51;;;;;;;7.80;6.60;;;21.20;99.90;;;;;;5059145;28;20411;-77
2021/08/20 10:17:17;;;;;;;7.50;6.73;;;21.00;99.90;;;;;;5058243;28;20488;-74
2021/08/20 10:19:43;;;;;;;7.23;6.63;;;21.00;99.90;;;;;;5041210;28;20443;-72
2021/08/20 10:22:09;;;;;;;6.10;5.50;;;20.80;99.90;;;;;;5056441;28;20627;-73
2021/08/20 10:24:35;;;;;;;5.80;5.20;;;20.80;99.90;;;;;;5055522;28;20415;-73
2021/08/20 10:27:05;;;;;;;6.20;5.60;;;20.90;99.90;;;;;;5055416;28;20183;-73
2021/08/20 10:29:34;;;;;;;6.17;5.67;;;20.80;99.90;;;;;;5056487;28;20420;-72
2021/08/20 10:32:04;;;;;;;6.73;6.00;;;20.70;99.90;;;;;;5056604;28;20445;-73
2021/08/20 10:34:29;;;;;;;7.75;7.05;;;20.50;99.90;;;;;;5055047;28;20495;-74
2021/08/20 10:37:05;;;;;;;9.00;6.97;;;20.40;99.90;;;;;;5056111;28;20679;-72
2021/08/20 10:39:31;;;;;;;10.40;9.40;;;20.30;99.90;;;;;;5056449;28;20174;-74
2021/08/20 10:42:09;;;;;;;13.13;10.03;;;20.20;99.90;;;;;;5056288;28;20437;-72
2021/08/20 10:44:46;;;;;;;10.67;9.67;;;20.00;99.90;;;;;;5043134;28;20706;-73
2021/08/20 10:47:25;;;;;;;14.43;11.00;;;19.90;99.90;;;;;;5035943;28;20402;-72
2021/08/20 10:50:20;;;;;;;10.03;9.13;;;20.00;99.90;;;;;;5046577;28;20473;-73
2021/08/20 10:52:51;;;;;;;11.43;10.23;;;20.00;99.90;;;;;;5037854;28;20432;-76
2021/08/20 10:55:32;;;;;;;11.53;10.33;;;19.80;99.90;;;;;;5055833;28;20502;-74
2021/08/20 10:58:02;;;;;;;10.37;9.37;;;19.60;99.90;;;;;;5053779;28;20988;-74
2021/08/20 11:00:33;;;;;;;9.50;8.60;;;19.70;99.90;;;;;;5055671;28;20429;-75
2021/08/20 11:03:02;;;;;;;8.40;7.60;;;19.70;99.90;;;;;;5033819;28;20477;-73
2021/08/20 11:05:40;;;;;;;8.03;7.33;;;19.40;99.90;;;;;;5035457;28;20409;-73
2021/08/20 11:08:27;;;;;;;7.73;7.03;;;19.40;99.90;;;;;;5033794;28;20507;-73
2021/08/20 11:10:58;;;;;;;7.07;6.00;;;19.40;99.90;;;;;;5040715;28;20595;-75
2021/08/20 11:13:23;;;;;;;6.00;5.50;;;19.50;99.90;;;;;;5055469;28;20417;-74
2021/08/20 11:15:53;;;;;;;5.90;5.40;;;19.70;99.90;;;;;;5036852;28;20413;-74
2021/08/20 11:18:39;;;;;;;6.17;5.33;;;20.00;99.90;;;;;;5054919;28;20170;-72
2021/08/20 11:21:04;;;;;;;5.73;5.23;;;20.30;99.90;;;;;;5037119;28;20925;-71
2021/08/20 11:23:31;;;;;;;4.83;4.53;;;20.50;99.90;;;;;;5055027;28;20431;-73
2021/08/20 11:25:57;;;;;;;4.23;3.93;;;20.60;99.90;;;;;;5055188;28;20166;-73
2021/08/20 11:28:26;;;;;;;3.20;3.00;;;20.70;99.90;;;;;;5036246;28;20498;-73
2021/08/20 11:30:57;;;;;;;2.60;2.47;;;20.90;99.90;;;;;;5054406;28;20193;-73
2021/08/20 11:33:26;;;;;;;2.60;2.40;;;21.00;99.90;;;;;;5055063;28;20413;-73
2021/08/20 11:36:03;;;;;;;2.80;2.60;;;21.10;99.90;;;;;;5054031;28;20445;-74
2021/08/20 11:38:33;;;;;;;3.00;2.80;;;21.20;99.90;;;;;;5054956;28;20463;-73
2021/08/20 11:41:09;;;;;;;3.43;3.23;;;21.20;99.90;;;;;;5054991;28;20429;-73
2021/08/20 11:43:44;;;;;;;3.77;3.47;;;21.30;99.90;;;;;;5054233;28;20420;-74
2021/08/20 11:46:11;;;;;;;3.40;3.10;;;21.40;99.90;;;;;;5036037;28;20840;-72
2021/08/20 11:48:50;;;;;;;3.43;3.07;;;21.40;99.90;;;;;;5053943;28;20170;-72
2021/08/20 11:51:35;;;;;;;3.10;2.90;;;21.50;99.90;;;;;;5054291;28;20487;-72
2021/08/20 11:54:04;;;;;;;2.97;2.77;;;21.80;99.90;;;;;;5054270;28;20416;-73
2021/08/20 11:56:30;;;;;;;3.37;3.17;;;21.80;99.90;;;;;;5054116;28;20482;-73
2021/08/20 11:58:56;;;;;;;3.60;3.30;;;21.80;99.90;;;;;;5054030;28;20412;-73
2021/08/20 12:01:23;;;;;;;3.33;3.13;;;21.90;99.90;;;;;;5049852;28;20428;-72
2021/08/20 12:03:53;;;;;;;3.80;3.50;;;22.10;99.90;;;;;;5034169;28;20406;-72
2021/08/20 12:06:22;;;;;;;3.77;3.47;;;22.00;99.90;;;;;;5047193;28;20798;-71
2021/08/20 12:08:48;;;;;;;4.20;3.90;;;21.90;99.90;;;;;;5053493;28;20491;-73
2021/08/20 12:11:19;;;;;;;4.30;4.00;;;22.00;99.90;;;;;;5054320;28;20479;-73
2021/08/20 12:13:48;;;;;;;3.17;2.97;;;22.20;99.90;;;;;;5054015;28;20212;-72
2021/08/20 12:16:39;;;;;;;3.43;3.23;;;22.20;99.90;;;;;;5053403;28;20456;-72
2021/08/20 12:19:28;;;;;;;3.60;3.40;;;22.10;99.90;;;;;;5054377;28;20407;-73
2021/08/20 12:22:07;;;;;;;3.60;3.23;;;22.20;99.90;;;;;;5073293;28;20206;-74
2021/08/20 12:24:38;;;;;;;3.60;3.40;;;22.30;99.90;;;;;;5075261;28;20404;-73
2021/08/20 12:27:25;;;;;;;3.40;3.20;;;22.50;99.90;;;;;;5063005;28;20458;-73
2021/08/20 12:29:59;;;;;;;3.13;2.87;;;22.50;99.90;;;;;;5053740;28;20416;-72
2021/08/20 12:32:42;;;;;;;4.00;2.87;;;22.30;99.90;;;;;;5056035;28;20900;-72
2021/08/20 12:35:23;;;;;;;3.70;3.40;;;22.40;99.90;;;;;;5038305;28;20417;-73
2021/08/20 12:38:06;;;;;;;2.93;2.63;;;22.40;99.90;;;;;;5054569;28;20464;-73